SSEC Globe Logo

Space Science and Engineering Center

Surface Aviation Observations

KAIG 221415Z AUTO 32013G18KT 10SM SCT018 SCT025 BKN030 16/12
     A2987 RMK AO2 T01590117=
KAIG 221355Z AUTO 31015G20KT 10SM BKN020 BKN030 16/12 A2987
     RMK AO2 T01580124=
KC29 221415Z AUTO 29009G14KT 10SM BKN015 BKN022 OVC044 21/18
     A2990 RMK AO1 T02120179=
KC29 221355Z AUTO 27008KT 10SM BKN015 OVC022 21/18 A2990 RMK
     AO1 T02050183=
KBCK 221415Z AUTO 33008KT 10SM SCT029 20/13 A2993 RMK AO2
     T02010129=
KBCK 221355Z AUTO 33008G15KT 10SM SCT021 19/13 A2993 RMK AO2
     T01940127=
KUBE 221415Z AUTO 33010G17KT 10SM SCT019 15/11 A2998 RMK
     AO2=
KUBE 221355Z AUTO 33011G16KT 10SM CLR 15/11 A2998 RMK AO2=
KPVB 221415Z AUTO 30006KT 10SM SCT011 SCT016 OVC026 19/19
     A2995 RMK AO1 T01940185=
KPVB 221355Z AUTO 28007KT 10SM SCT012 OVC026 19/19 A2994 RMK
     AO1 T01900188=
KEZS 221415Z AUTO 33013G18KT 10SM OVC031 20/12 A2984 RMK AO2
     T01970122=
KEZS 221355Z AUTO 35008G17KT 10SM BKN031 20/13 A2983 RMK AO2
     T01960125=
KARV 221415Z AUTO 31012G15KT 10SM SCT017 SCT022 BKN039 15/12
     A2988 RMK AO2 T01530122=
KARV 221355Z AUTO 33010G16KT 10SM SCT017 SCT022 BKN032 15/13
     A2987 RMK AO2 T01520127=
KASX 221414Z AUTO 29007KT 10SM SCT018 17/13 A2991 RMK AO2
     T01670128=
KASX 221353Z AUTO 31008G15KT 10SM BKN019 16/12 A2991 RMK AO2
     SLP129 T01560122=
KATW 221345Z 33014G22KT 10SM SCT015 BKN020 19/15 A2981=
KAUW 221354Z AUTO 32016G22KT 10SM CLR 17/12 A2987 RMK AO2
     SLP115 T01720117=
KBUU 221415Z AUTO 26009KT 10SM SCT021 OVC029 20/18 A2987 RMK
     AO2 T02000178=
KBUU 221355Z AUTO 26008G14KT 10SM SCT016 BKN021 OVC027 19/18
     A2987 RMK AO2 T01920175=
KCLI 221415Z AUTO 32010G16KT 10SM OVC031 18/11 A2985 RMK
     AO2=
KCLI 221355Z AUTO 33008KT 10SM BKN033 18/11 A2984 RMK AO2=
KCMY 221415Z AUTO 33011G18KT 10SM SCT021 SCT028 18/14 A2995
     RMK AO2 T01820139=
KCMY 221355Z AUTO 31012G20KT 10SM BKN021 BKN030 18/14 A2994
     RMK AO2 T01830144=
KCWA 221353Z 31011G16KT 10SM SCT023 17/13 A2989=
KDLL 221415Z AUTO 31007G17KT 10SM BKN020 OVC027 20/14 A2991
     RMK AO2 T01950141=
KDLL 221355Z AUTO 31014G21KT 10SM BKN020 OVC027 20/14 A2989
     RMK AO2 T01960144=
KEAU 221356Z 33012G17KT 10SM SCT022 SCT028 18/13 A2995 RMK
     AO2 SLP138 T01780128 $=
KEFT 221415Z AUTO 27012G15KT 10SM BKN029 OVC036 19/16 A2992
     RMK AO2=
KEFT 221355Z AUTO 29008G14KT 10SM SCT021 BKN029 19/16 A2991
     RMK AO2=
KEGV 221415Z AUTO 32011G19KT 10SM SCT021 BKN027 BKN032 16/10
     A2985 RMK AO2 T01610103=
KEGV 221355Z AUTO 31009G20KT 10SM SCT016 16/11 A2985 RMK AO2
     T01570105=
KENW 221353Z 27013G19KT 10SM OVC021 21/17 A2986 RMK AO2
     SLP108 T02060172=
KETB 221415Z AUTO 29008KT 10SM OVC018 20/17 A2983 RMK AO2=
KETB 221355Z AUTO 29011G15KT 10SM BKN018 OVC022 20/17 A2983
     RMK AO2=
KFLD 221353Z AUTO 28013KT 10SM BKN020 21/16 A2983 RMK AO2
     SLP098 T02110161=
KGRB 221353Z 32018G25KT 10SM FEW023 BKN036 OVC045 19/15
     A2981 RMK AO2 SLP093 T01890150=
KHYR 221353Z AUTO 34007KT 310V010 10SM SCT013 15/11 A2995
     RMK AO2 SLP141 T01500106=
KISW 221354Z AUTO 34014G21KT 10SM CLR 18/13 A2990 RMK AO2
     SLP123 T01830128=
KJVL 221415Z 29011G15KT 10SM FEW012 SCT150 21/18 A2988=
KJVL 221345Z 28011G15KT 10SM SCT012 BKN020 21/19 A2989=
KLNL 221415Z AUTO 31006G16KT 10SM SCT017 BKN021 BKN040 15/12
     A2986 RMK AO2 T01510119=
KLNL 221355Z AUTO 31010G15KT 260V320 10SM SCT014 SCT032
     15/12 A2986 RMK AO2 T01480120=
KLNR 221406Z AUTO 30011G16KT 10SM BKN024 OVC034 21/17 A2991
     RMK AO2 T02060167=
KLNR 221356Z AUTO 30009KT 10SM SCT021 SCT028 OVC036 22/18
     A2991 RMK AO2 SLP119 T02170178=
KLSE 221418Z 33011KT 10SM BKN026 21/14 A2996 RMK AO2
     T02110144=
KLSE 221353Z 32012KT 10SM FEW023 21/14 A2995 RMK AO2 SLP133
     T02060144=
KLUM 221415Z AUTO 29010G14KT 10SM CLR 18/12 A2998 RMK AO2
     T01750121=
KLUM 221355Z AUTO 30011G16KT 10SM CLR 17/13 A2998 RMK AO2
     T01710126=
KMDZ 221415Z AUTO 31010G16KT 10SM SCT019 SCT025 BKN038 16/12
     A2992 RMK AO2 T01560118=
KMDZ 221355Z AUTO 32012G19KT 10SM SCT018 BKN022 BKN027 15/12
     A2991 RMK AO2 T01490118=
KMFI 221354Z AUTO 32010KT 10SM FEW017 18/12 A2990 RMK AO2
     SLP123 T01780122 TSNO=
KMKE 221352Z 27013KT 10SM FEW026 SCT030 BKN095 BKN250 22/17
     A2984 RMK AO2 SLP098 T02170172=
KMRJ 221415Z AUTO 32008G14KT 10SM SCT014 SCT024 OVC031 21/18
     A2994 RMK AO2=
KMRJ 221355Z AUTO 29008KT 10SM SCT012 OVC027 20/18 A2993 RMK
     AO2=
KMSN 221421Z VRB05KT 10SM SCT017 BKN022 BKN028 21/17 A2988
     RMK AO2 T02110172=
KMSN 221353Z 27008KT 240V300 10SM SCT014 BKN041 20/17 A2988
     RMK AO2 SLP114 T02000172=
KMTW 221413Z AUTO 29011KT 10SM BKN020 OVC027 22/17 A2980 RMK
     AO2=
KMTW 221356Z AUTO 29013KT 10SM 22/17 A2979 RMK AO2 SLPNO
     T02170167=
KMWC 221345Z 26010G18KT 10SM BKN018 20/15 A2984=
KOEO 221415Z AUTO 31006G16KT 10SM CLR 18/12 A3003 RMK AO2
     T01760124=
KOEO 221355Z AUTO 31010G15KT 10SM CLR 17/12 A3003 RMK AO2
     T01660119=
KOSH 221353Z 29010KT 10SM BKN020 BKN026 21/17 A2982 RMK AO2
     SLP087 T02110172=
KOVS 221353Z AUTO 32006KT 10SM SCT021 21/16 A2993 RMK AO2
     SLP134 T02060161=
KPBH 221415Z AUTO 32007KT 10SM BKN013 BKN018 OVC034 14/12
     A2991 RMK AO2 T01400121=
KPBH 221355Z AUTO 31004KT 10SM BKN014 OVC032 14/12 A2990 RMK
     AO2 T01390122=
KPCZ 221415Z AUTO 32013G18KT 10SM CLR 21/13 A2986 RMK AO2
     T02060125=
KPCZ 221355Z AUTO 31014G20KT 10SM SCT026 20/13 A2986 RMK AO2
     T02010126=
KPDC 221415Z AUTO 30008KT 10SM BKN023 20/15 A2996 RMK AO2
     T02020148=
KPDC 221355Z AUTO 32007KT 10SM BKN021 19/15 A2995 RMK AO2
     T01930146=
KRAC 221353Z AUTO 26011KT 10SM BKN020 OVC026 21/18 A2986 RMK
     AO2 SLP108 T02110178=
KRCX 221415Z AUTO 31014G19KT 10SM SCT017 SCT025 SCT029 17/12
     A2995 RMK AO2 T01650119=
KRCX 221355Z AUTO 32009G20KT 10SM SCT014 BKN019 BKN025 16/12
     A2995 RMK AO2 T01580124=
KRHI 221353Z AUTO 32009G17KT 10SM FEW025 16/12 A2988 RMK AO2
     SLP114 T01560117=
KRNH 221415Z AUTO 33007G16KT 10SM CLR 17/12 A3001 RMK AO2
     T01710119=
KRNH 221355Z AUTO 32012KT 10SM CLR 16/12 A3000 RMK AO2
     T01640116=
KRPD 221415Z AUTO 31006G16KT 10SM CLR 16/11 A2999 RMK AO2
     T01630111=
KRPD 221355Z AUTO 31008G15KT 10SM CLR 16/11 A2998 RMK AO2
     T01590110=
KRRL 221419Z AUTO 35011G15KT 10SM SCT039 17/12 A2989 RMK
     AO2=
KRRL 221358Z AUTO 34010G14KT 10SM SCT020 SCT041 17/12 A2989
     RMK AO2=
KRYV 221415Z AUTO 27012G16KT 10SM OVC016 21/19 A2986 RMK AO2
     T02060185=
KRYV 221355Z AUTO 27011KT 10SM BKN016 OVC021 20/19 A2986 RMK
     AO2 T02030185=
KRZN 221415Z AUTO 32010G14KT 10SM CLR 17/11 A2998 RMK AO2
     T01650106=
KRZN 221355Z AUTO 32009G14KT 10SM CLR 16/11 A2998 RMK AO2
     T01590113=
KSBM 221353Z AUTO 28012KT 10SM FEW032 SCT039 21/18 A2981 RMK
     AO2 SLP089 T02110183=
KSTE 221415Z AUTO 31007G16KT 290V350 10SM SCT024 17/12 A2989
     RMK AO2 T01730123=
KSTE 221355Z AUTO 32008G18KT 270V350 10SM SCT024 17/12 A2988
     RMK AO2 T01690120=
KSUE 221356Z AUTO 31015KT 10SM BKN031 18/13 A2979 RMK AO2
     SLP103 T01830133=
KSUW 221415Z AUTO 28006KT 10SM 15/12 A2994 RMK AO2
     T01540120=
KSUW 221355Z AUTO 28008KT 10SM 15/12 A2994 RMK AO2
     T01470123=
KTKV 221415Z AUTO 29005KT 10SM 15/11 A2990 RMK AO2
     T01460110=
KTKV 221355Z AUTO 29008G14KT 260V320 10SM 15/11 A2989 RMK
     AO2 T01480112=
KUES 221345Z 27011G16KT 10SM BKN014 OVC027 18/16 A2986=
KUNU 221415Z AUTO 26008G14KT 10SM BKN017 BKN023 OVC034 20/17
     A2987 RMK AO2 T01980166=
KUNU 221355Z AUTO 27008KT 240V300 10SM OVC015 20/17 A2987
     RMK AO2 T01950167=
KVOK 221358Z 32012KT 10SM SCT020 20/16 A2991 RMK AO2A
     SLP129=
METAR KVOK 221358Z 32012KT 10SM SCT020 20/16 A2991 RMK AO2A
     SLP129=
KVOK 221358Z 32012KT 10SM SCT020 20/16 A2991 RMK AO2A
     SLP129=
METAR KVOK 221358Z 32012KT 10SM SCT020 20/16 A2991 RMK AO2A
     SLP129=
KY50 221356Z AUTO 34013G18KT 10SM SCT028 20/14 A2987 RMK AO2
     SLP132 T02000139=
KY51 221415Z AUTO 32010G14KT 10SM OVC019 18/16 A2995 RMK AO1
     T01780155=
KY51 221355Z AUTO 33013G18KT 10SM OVC019 18/16 A2995 RMK AO1
     T01800156=
KDBQ 221353Z 32008KT 10SM SCT012 OVC022 19/17 A2996 RMK AO2
     SLP140 T01890167=
KRST 221413Z 32014G20KT 10SM SCT014 17/14 A3003 RMK AO2
     T01670139=
KRST 221354Z 32012G17KT 10SM BKN012 17/14 A3002 RMK AO2
     SLP165 T01670144=
KRST 221347Z 32010KT 10SM FEW007 SCT012 16/14 A3002 RMK AO2
     T01610144=
KMSP 221353Z 31012KT 10SM CLR 17/12 A3003 RMK AO2 SLP166
     T01720122=
KRFD 221354Z 29008KT 10SM OVC016 21/17 A2991 RMK AO2 SLP124
     T02060172=
KORD 221351Z 27011KT 10SM BKN015 BKN022 BKN095 OVC250 22/19
     A2986 RMK AO2 SLP108 T02220189=
KORD 221349Z 26010KT 10SM BKN015 BKN022 BKN095 OVC250 22/19
     A2987 RMK AO2=